Estación Meteorológica Peña el Pijo (Robertgarden) [ 03/23/19 13:25:32 CET ]

Fecha Hora Presion(HPa) Temp (°C) Humedad % Rocio (°C) Viento ( m/s) Direccion Lluvia 1Hora(mm) Lluvia 24H(mm) LLuvia Total(mm)
2019-Mar-11 01:01:54 1018.000 7.6 66 1.6         184.40
2019-Mar-11 02:01:59 1017.600 6.5 67 0.8         184.40
2019-Mar-11 03:02:02 1017.100 6.4 68 0.9         184.40
2019-Mar-11 04:02:28 1016.500 6.4 70 1.4         184.40
2019-Mar-11 05:02:12 1016.500 6.3 71 1.4         184.40
2019-Mar-11 06:01:44 1016.700 6.1 72 1.4         184.40
2019-Mar-11 07:01:47 1016.900 5.9 74 1.6         184.40
2019-Mar-11 08:01:42 1017.200 5.9 75 1.8         184.40
2019-Mar-11 09:01:43 1017.400 10.8 74 6.4         184.40
2019-Mar-11 10:01:55 1017.500 17.1 55 7.9         184.40
2019-Mar-11 11:01:38 1017.300 21.8 37 6.4 2.0 ENE     184.40
2019-Mar-11 12:01:40 1017.400 22.6 32 5.0         184.40
2019-Mar-11 13:01:38 1017.200 20.6 34 4.1 0.7 ENE     184.40
2019-Mar-11 14:02:12 1016.700 19.6 36 4.0         184.40
2019-Mar-11 15:01:58 1016.100 21.3 36 5.5         184.40
2019-Mar-11 16:01:50 1016.200 20.9 36 5.2         184.40
2019-Mar-11 17:01:46 1016.100 20.3 37 5.0 2.7 NE     184.40
2019-Mar-11 18:01:43 1016.200 19.1 39 4.8         184.40
2019-Mar-11 19:01:50 1017.000 16.1 47 4.7         184.40
2019-Mar-11 20:01:36 1017.800 13.0 55 4.1         184.40
2019-Mar-11 21:02:00 1018.700 11.2 61 3.9         184.40
2019-Mar-11 22:01:47 1019.100 8.4 66 2.4         184.40
2019-Mar-11 23:01:51 1019.400 7.0 70 1.9         184.40

Temperatura Máxima:22°    Temperatura Mínima:
Presión Máxima:1019.400 Hpa    Presión Mínima:1016.100 Hpa


Volver